createdAt,value
2019-02-08T00:00:46.118Z,186.83
2019-02-08T00:03:49.829Z,189.43
2019-02-08T00:06:53.487Z,174.90
2019-02-08T00:09:57.205Z,159.83
2019-02-08T00:13:00.856Z,147.47
2019-02-08T00:16:04.568Z,155.23
2019-02-08T00:19:08.293Z,153.70
2019-02-08T00:22:12.009Z,150.03
2019-02-08T00:25:23.089Z,144.30
2019-02-08T00:28:26.743Z,133.70
2019-02-08T00:31:30.444Z,126.07
2019-02-08T00:34:34.118Z,127.10
2019-02-08T00:37:37.830Z,122.90
2019-02-08T00:40:41.538Z,126.63
2019-02-08T00:43:45.234Z,129.80
2019-02-08T00:46:48.931Z,112.33
2019-02-08T00:49:52.634Z,117.57
2019-02-08T00:52:56.335Z,98.70
2019-02-08T00:56:00.015Z,98.87
2019-02-08T00:59:03.723Z,92.83
2019-02-08T01:02:08.898Z,88.40
2019-02-08T01:05:20.821Z,93.67
2019-02-08T01:08:24.467Z,80.37
2019-02-08T01:11:28.179Z,85.73
2019-02-08T01:14:31.845Z,80.47
2019-02-08T01:17:35.534Z,72.77
2019-02-08T01:20:39.262Z,83.23
2019-02-08T01:23:42.924Z,76.47
2019-02-08T01:26:46.654Z,77.10
2019-02-08T01:29:50.394Z,79.07
2019-02-08T01:32:54.099Z,72.97
2019-02-08T01:35:57.835Z,77.73
2019-02-08T01:39:01.579Z,77.33
2019-02-08T01:42:05.239Z,71.60
2019-02-08T01:45:12.240Z,72.43
2019-02-08T01:48:15.936Z,65.20
2019-02-08T01:51:19.647Z,74.43
2019-02-08T01:54:23.319Z,109.67
2019-02-08T01:57:27.074Z,103.23
2019-02-08T02:00:35.592Z,166.03
2019-02-08T02:03:39.311Z,151.10
2019-02-08T02:06:43.015Z,143.83
2019-02-08T02:09:46.719Z,129.50
2019-02-08T02:12:50.474Z,126.07
2019-02-08T02:15:54.204Z,117.63
2019-02-08T02:18:57.868Z,122.03
2019-02-08T02:22:01.568Z,109.77
2019-02-08T02:25:08.053Z,125.80
2019-02-08T02:28:11.770Z,123.57
2019-02-08T02:31:15.434Z,112.30
2019-02-08T02:34:19.189Z,108.03
2019-02-08T02:37:22.824Z,105.43
2019-02-08T02:40:26.550Z,107.23
2019-02-08T02:43:30.405Z,102.77
2019-02-08T02:46:34.115Z,113.73
2019-02-08T02:49:37.838Z,107.73
2019-02-08T02:52:41.466Z,110.47
2019-02-08T02:55:45.233Z,112.47
2019-02-08T02:58:48.884Z,112.60
2019-02-08T03:01:52.611Z,123.90
2019-02-08T03:04:56.284Z,114.73
2019-02-08T03:07:59.999Z,115.40
2019-02-08T03:11:03.668Z,107.20
2019-02-08T03:14:07.409Z,105.93
2019-02-08T03:17:11.043Z,102.10
2019-02-08T03:20:17.880Z,99.97
2019-02-08T03:23:21.540Z,104.80
2019-02-08T03:26:25.331Z,101.27
2019-02-08T03:29:29.023Z,103.60
2019-02-08T03:32:32.740Z,118.97
2019-02-08T03:35:36.456Z,131.90
2019-02-08T03:38:40.164Z,144.70
2019-02-08T03:41:43.872Z,135.43
2019-02-08T03:44:47.557Z,150.57
2019-02-08T03:47:51.268Z,125.07
2019-02-08T03:50:54.918Z,137.87
2019-02-08T03:53:58.645Z,142.57
2019-02-08T03:57:02.312Z,147.43
2019-02-08T04:00:09.171Z,146.63
2019-02-08T04:03:12.829Z,141.57
2019-02-08T04:06:16.537Z,148.50
2019-02-08T04:09:20.274Z,151.17
2019-02-08T04:12:23.908Z,148.37
2019-02-08T04:15:27.632Z,142.37
2019-02-08T04:18:31.368Z,143.90
2019-02-08T04:21:35.036Z,150.50
2019-02-08T04:24:38.725Z,158.80
2019-02-08T04:27:42.444Z,148.53
2019-02-08T04:30:46.140Z,148.00
2019-02-08T04:33:49.849Z,147.67
2019-02-08T04:36:53.517Z,135.47
2019-02-08T04:39:57.241Z,147.43
2019-02-08T04:43:00.963Z,144.30
2019-02-08T04:46:04.653Z,145.40
2019-02-08T04:49:08.364Z,179.47
2019-02-08T04:52:12.070Z,188.70
2019-02-08T04:55:15.794Z,173.80
2019-02-08T04:58:19.505Z,185.93
2019-02-08T05:01:23.213Z,181.67
2019-02-08T05:04:26.952Z,209.53
2019-02-08T05:07:30.676Z,182.87
2019-02-08T05:10:34.951Z,158.13
2019-02-08T05:13:38.667Z,161.33
2019-02-08T05:16:42.404Z,166.50
2019-02-08T05:19:46.146Z,141.23
2019-02-08T05:22:49.872Z,134.90
2019-02-08T05:25:53.615Z,163.07
2019-02-08T05:28:59.596Z,152.47
2019-02-08T05:32:03.357Z,198.90
2019-02-08T05:35:08.834Z,180.17
2019-02-08T05:38:12.536Z,212.43
2019-02-08T05:41:16.211Z,183.60
2019-02-08T05:44:20.016Z,195.70
2019-02-08T05:47:23.699Z,205.47
2019-02-08T05:50:28.615Z,206.60
2019-02-08T05:53:32.317Z,197.27
2019-02-08T05:56:35.999Z,198.93
2019-02-08T05:59:39.699Z,202.43
2019-02-08T06:02:43.408Z,199.30
2019-02-08T06:05:47.618Z,192.13
2019-02-08T06:08:51.297Z,187.37
2019-02-08T06:11:55.000Z,166.40
2019-02-08T06:14:58.719Z,172.50
2019-02-08T06:18:02.392Z,189.53
2019-02-08T06:21:10.910Z,182.53
2019-02-08T06:24:17.979Z,177.77
2019-02-08T06:27:23.252Z,179.00
2019-02-08T06:30:30.897Z,179.67
2019-02-08T06:33:34.620Z,163.23
2019-02-08T06:36:38.340Z,167.33
2019-02-08T06:39:43.121Z,161.67
2019-02-08T06:42:46.929Z,134.97
2019-02-08T06:45:50.686Z,144.40
2019-02-08T06:48:54.376Z,139.47
2019-02-08T06:51:58.099Z,133.30
2019-02-08T06:55:01.823Z,148.80
2019-02-08T06:58:20.123Z,136.87
2019-02-08T07:01:37.322Z,133.20
2019-02-08T07:04:46.856Z,134.63
2019-02-08T07:08:08.272Z,139.53
2019-02-08T07:11:22.236Z,141.13
2019-02-08T07:14:44.656Z,151.73
2019-02-08T07:17:52.645Z,147.57
2019-02-08T07:20:57.936Z,163.03
2019-02-08T07:24:06.460Z,164.33
2019-02-08T07:27:17.669Z,177.87
2019-02-08T07:30:42.092Z,180.17
2019-02-08T07:33:47.356Z,181.80
2019-02-08T07:37:08.749Z,181.57
2019-02-08T07:40:25.589Z,183.27
2019-02-08T07:43:30.861Z,182.10
2019-02-08T07:46:36.109Z,172.80
2019-02-08T07:49:44.411Z,178.80
2019-02-08T07:52:49.686Z,177.63
2019-02-08T07:55:58.800Z,165.27
2019-02-08T07:59:05.385Z,169.80
2019-02-08T08:02:12.299Z,166.63
2019-02-08T08:05:26.039Z,167.13
2019-02-08T08:08:36.905Z,157.20
2019-02-08T08:12:00.574Z,160.27
2019-02-08T08:15:07.971Z,148.60
2019-02-08T08:18:30.921Z,121.50
2019-02-08T08:21:43.790Z,104.67
2019-02-08T08:24:53.075Z,104.37
2019-02-08T08:27:58.481Z,105.97
2019-02-08T08:31:05.979Z,93.13
2019-02-08T08:34:34.010Z,93.30
2019-02-08T08:38:15.426Z,106.37
2019-02-08T08:41:50.814Z,98.97
2019-02-08T08:45:00.404Z,101.13
2019-02-08T08:48:26.663Z,100.77
2019-02-08T08:51:36.071Z,98.43
2019-02-08T08:55:19.350Z,91.27
2019-02-08T08:58:43.920Z,93.50
2019-02-08T09:01:53.557Z,106.80
2019-02-08T09:05:03.332Z,105.43
2019-02-08T09:08:38.372Z,110.60
2019-02-08T09:12:01.988Z,103.47
2019-02-08T09:15:24.988Z,100.30
2019-02-08T09:19:04.055Z,84.03
2019-02-08T09:22:16.879Z,85.13
2019-02-08T09:25:38.730Z,78.20
2019-02-08T09:28:51.495Z,86.00
2019-02-08T09:32:31.634Z,92.60
2019-02-08T09:36:06.487Z,95.30
2019-02-08T09:39:38.513Z,92.53
2019-02-08T09:43:21.227Z,89.47
2019-02-08T09:46:51.538Z,107.40
2019-02-08T09:50:26.522Z,107.47
2019-02-08T09:53:35.979Z,100.93
2019-02-08T09:57:08.604Z,99.70
2019-02-08T10:00:37.107Z,105.83
2019-02-08T10:04:15.596Z,109.30
2019-02-08T10:07:31.215Z,104.87
2019-02-08T10:11:03.842Z,106.33
2019-02-08T10:14:37.657Z,103.93
2019-02-08T10:18:14.569Z,103.90
2019-02-08T10:21:42.054Z,104.40
2019-02-08T10:24:54.673Z,111.70
2019-02-08T10:28:23.000Z,114.90
2019-02-08T10:31:52.303Z,107.30
2019-02-08T10:35:17.013Z,115.37
2019-02-08T10:38:32.444Z,106.03
2019-02-08T10:41:58.935Z,114.83
2019-02-08T10:45:17.353Z,120.50
2019-02-08T10:48:39.239Z,109.37
2019-02-08T10:51:59.854Z,114.83
2019-02-08T10:55:23.153Z,112.67
2019-02-08T10:58:46.685Z,112.13
2019-02-08T11:02:19.286Z,109.37
2019-02-08T11:05:51.655Z,104.27
2019-02-08T11:09:22.610Z,109.13
2019-02-08T11:12:51.797Z,119.73
2019-02-08T11:16:19.665Z,114.07
2019-02-08T11:19:22.279Z,102.80
2019-02-08T11:22:26.031Z,101.37
2019-02-08T11:25:32.303Z,99.87
2019-02-08T11:28:36.028Z,111.50
2019-02-08T11:31:43.616Z,104.00
2019-02-08T11:34:48.840Z,109.50
2019-02-08T11:37:52.571Z,112.57
2019-02-08T11:40:56.334Z,99.03
2019-02-08T11:44:00.045Z,101.13
2019-02-08T11:47:03.719Z,106.23
2019-02-08T11:50:13.236Z,104.83
2019-02-08T11:53:16.962Z,114.00
2019-02-08T11:56:20.634Z,106.13
2019-02-08T11:59:24.409Z,97.67
2019-02-08T12:02:31.525Z,100.60
2019-02-08T12:05:35.196Z,108.10
2019-02-08T12:08:39.660Z,102.57
2019-02-08T12:11:44.312Z,95.97
2019-02-08T12:14:49.672Z,97.50
2019-02-08T12:17:54.970Z,98.93
2019-02-08T12:20:59.147Z,104.70
2019-02-08T12:24:02.795Z,111.97
2019-02-08T12:27:06.500Z,125.17
2019-02-08T12:30:25.570Z,120.47
2019-02-08T12:33:29.231Z,113.90
2019-02-08T12:36:34.637Z,113.87
2019-02-08T12:39:38.459Z,110.73
2019-02-08T12:42:42.141Z,114.03
2019-02-08T12:45:45.862Z,107.03
2019-02-08T12:48:49.571Z,97.67
2019-02-08T12:51:53.311Z,95.73
2019-02-08T12:54:57.035Z,90.13
2019-02-08T12:58:00.691Z,85.70
2019-02-08T13:01:04.415Z,82.90
2019-02-08T13:04:08.077Z,76.90
2019-02-08T13:07:11.772Z,80.90
2019-02-08T13:10:18.313Z,73.43
2019-02-08T13:13:22.002Z,79.33
2019-02-08T13:16:25.704Z,76.10
2019-02-08T13:19:29.410Z,78.90
2019-02-08T13:22:33.081Z,75.90
2019-02-08T13:25:36.799Z,66.43
2019-02-08T13:28:40.571Z,56.83
2019-02-08T13:31:44.294Z,51.57
2019-02-08T13:34:47.971Z,59.27
2019-02-08T13:37:51.680Z,47.00
2019-02-08T13:40:55.367Z,50.30
2019-02-08T13:43:59.220Z,49.93
2019-02-08T13:47:02.874Z,58.57
2019-02-08T13:50:12.419Z,50.40
2019-02-08T13:53:16.103Z,57.67
2019-02-08T13:56:19.818Z,60.47
2019-02-08T13:59:23.545Z,53.33
2019-02-08T14:02:27.197Z,52.40
2019-02-08T14:05:30.935Z,54.27
2019-02-08T14:08:34.675Z,59.73
2019-02-08T14:11:38.323Z,58.27
2019-02-08T14:14:42.047Z,58.47
2019-02-08T14:17:45.820Z,57.73
2019-02-08T14:20:49.496Z,60.13
2019-02-08T14:23:53.233Z,60.33
2019-02-08T14:26:56.890Z,62.00
2019-02-08T14:30:00.612Z,55.90
2019-02-08T14:33:04.281Z,59.50
2019-02-08T14:36:08.006Z,62.87
2019-02-08T14:39:11.703Z,59.13
2019-02-08T14:42:15.374Z,62.03
2019-02-08T14:45:19.057Z,95.53
2019-02-08T14:48:22.752Z,71.50
2019-02-08T14:51:26.400Z,64.37
2019-02-08T14:54:30.089Z,71.83
2019-02-08T14:57:33.790Z,70.73
2019-02-08T15:00:37.451Z,69.93
2019-02-08T15:03:41.184Z,65.53
2019-02-08T15:06:44.922Z,76.13
2019-02-08T15:09:48.555Z,66.87
2019-02-08T15:12:52.291Z,76.80
2019-02-08T15:15:55.939Z,74.97
2019-02-08T15:18:59.654Z,63.47
2019-02-08T15:22:03.309Z,64.37
2019-02-08T15:25:08.326Z,68.73
2019-02-08T15:28:12.053Z,71.93
2019-02-08T15:31:15.787Z,75.60
2019-02-08T15:34:19.478Z,78.37
2019-02-08T15:37:23.193Z,71.57
2019-02-08T15:40:42.131Z,75.93
2019-02-08T15:43:45.833Z,85.20
2019-02-08T15:46:49.492Z,86.57
2019-02-08T15:49:53.286Z,97.63
2019-02-08T15:52:56.997Z,96.77
2019-02-08T15:56:09.415Z,99.83
2019-02-08T15:59:13.079Z,98.70
2019-02-08T16:02:16.808Z,100.63
2019-02-08T16:05:22.354Z,93.07
2019-02-08T16:08:26.040Z,99.60
2019-02-08T16:11:30.749Z,95.27
2019-02-08T16:14:34.455Z,105.80
2019-02-08T16:17:38.162Z,127.23
2019-02-08T16:20:41.832Z,145.20
2019-02-08T16:23:45.574Z,161.40
2019-02-08T16:26:49.330Z,145.07
2019-02-08T16:29:53.073Z,127.93
2019-02-08T16:32:56.772Z,130.13
2019-02-08T16:36:00.454Z,145.37
2019-02-08T16:39:06.834Z,134.90
2019-02-08T16:42:10.554Z,127.70
2019-02-08T16:45:17.269Z,129.47
2019-02-08T16:48:20.998Z,121.10
2019-02-08T16:51:24.670Z,130.33
2019-02-08T16:54:28.374Z,125.97
2019-02-08T16:57:32.052Z,145.67
2019-02-08T17:00:41.595Z,145.77
2019-02-08T17:03:45.310Z,137.43
2019-02-08T17:06:49.010Z,163.23
2019-02-08T17:09:52.714Z,169.00
2019-02-08T17:12:56.539Z,173.50
2019-02-08T17:16:00.180Z,172.23
2019-02-08T17:19:03.896Z,168.30
2019-02-08T17:22:07.554Z,157.80
2019-02-08T17:25:11.384Z,145.23
2019-02-08T17:28:15.138Z,135.50
2019-02-08T17:31:18.790Z,129.27
2019-02-08T17:34:22.505Z,121.03
2019-02-08T17:37:26.189Z,126.30
2019-02-08T17:40:38.054Z,126.20
2019-02-08T17:43:41.747Z,125.90
2019-02-08T17:46:45.411Z,137.30
2019-02-08T17:49:49.360Z,124.57
2019-02-08T17:52:53.031Z,125.37
2019-02-08T17:55:56.761Z,141.63
2019-02-08T17:59:00.407Z,142.20
2019-02-08T18:02:04.138Z,156.63
2019-02-08T18:05:10.564Z,149.27
2019-02-08T18:08:14.216Z,141.97
2019-02-08T18:11:18.036Z,143.03
2019-02-08T18:14:21.711Z,151.77
2019-02-08T18:17:25.415Z,145.87
2019-02-08T18:20:35.274Z,155.17
2019-02-08T18:23:38.922Z,159.00
2019-02-08T18:26:42.642Z,153.57
2019-02-08T18:29:46.285Z,165.40
2019-02-08T18:32:50.010Z,186.50
2019-02-08T18:35:53.716Z,187.23
2019-02-08T18:38:57.445Z,189.17
2019-02-08T18:42:01.184Z,218.47
2019-02-08T18:45:07.049Z,286.97
2019-02-08T18:48:10.815Z,228.87
2019-02-08T18:51:14.516Z,255.90
2019-02-08T18:54:18.214Z,242.83
2019-02-08T18:57:23.467Z,245.37
2019-02-08T19:00:29.445Z,236.77
2019-02-08T19:03:33.174Z,236.83
2019-02-08T19:06:36.898Z,256.80
2019-02-08T19:09:40.581Z,238.23
2019-02-08T19:12:44.290Z,232.13
2019-02-08T19:15:47.990Z,227.67
2019-02-08T19:18:51.693Z,218.23
2019-02-08T19:21:55.470Z,225.40
2019-02-08T19:24:59.139Z,204.33
2019-02-08T19:28:02.863Z,174.33
2019-02-08T19:31:06.558Z,195.83
2019-02-08T19:34:10.296Z,175.93
2019-02-08T19:37:13.972Z,187.90
2019-02-08T19:40:23.354Z,183.47
2019-02-08T19:43:27.431Z,199.37
2019-02-08T19:46:31.196Z,181.97
2019-02-08T19:49:34.884Z,206.87
2019-02-08T19:52:38.593Z,204.63
2019-02-08T19:55:42.273Z,171.83
2019-02-08T19:58:46.018Z,192.33
2019-02-08T20:01:49.691Z,258.13
2019-02-08T20:04:53.421Z,203.60
2019-02-08T20:07:57.116Z,184.83
2019-02-08T20:11:00.822Z,176.97
2019-02-08T20:14:04.536Z,185.50
2019-02-08T20:17:08.201Z,179.10
2019-02-08T20:20:11.976Z,207.47
2019-02-08T20:23:15.725Z,254.00
2019-02-08T20:26:19.393Z,236.73
2019-02-08T20:29:23.110Z,250.23
2019-02-08T20:32:26.809Z,220.10
2019-02-08T20:35:30.474Z,223.67
2019-02-08T20:38:34.161Z,230.20
2019-02-08T20:41:37.861Z,220.80
2019-02-08T20:44:42.899Z,229.07
2019-02-08T20:47:46.681Z,238.33
2019-02-08T20:50:50.383Z,282.60
2019-02-08T20:53:54.110Z,265.17
2019-02-08T20:56:59.052Z,341.63
2019-02-08T21:00:04.764Z,366.87
2019-02-08T21:03:11.527Z,342.47
2019-02-08T21:06:15.374Z,299.83
2019-02-08T21:09:19.093Z,254.30
2019-02-08T21:12:22.769Z,248.30
2019-02-08T21:15:26.494Z,230.60
2019-02-08T21:18:30.235Z,253.87
2019-02-08T21:21:35.436Z,214.53
2019-02-08T21:24:39.209Z,197.73
2019-02-08T21:27:42.867Z,201.37
2019-02-08T21:30:47.974Z,208.93
2019-02-08T21:33:51.649Z,238.43
2019-02-08T21:36:55.295Z,243.90
2019-02-08T21:39:58.996Z,193.43
2019-02-08T21:43:02.672Z,211.80
2019-02-08T21:46:06.322Z,222.70
2019-02-08T21:49:10.054Z,217.80
2019-02-08T21:52:13.744Z,456.20
2019-02-08T21:55:19.029Z,494.40
2019-02-08T21:58:22.721Z,475.40
2019-02-08T22:01:26.393Z,479.07
2019-02-08T22:04:30.109Z,457.43
2019-02-08T22:07:33.764Z,414.07
2019-02-08T22:10:37.475Z,422.93
2019-02-08T22:13:41.207Z,432.70
2019-02-08T22:16:44.883Z,375.57
2019-02-08T22:19:48.577Z,401.50
2019-02-08T22:22:52.222Z,433.67
2019-02-08T22:25:55.935Z,436.00
2019-02-08T22:28:59.654Z,354.97
2019-02-08T22:32:03.380Z,366.90
2019-02-08T22:35:09.899Z,377.57
2019-02-08T22:38:13.555Z,407.13
2019-02-08T22:41:17.267Z,445.93
2019-02-08T22:44:20.989Z,477.43
2019-02-08T22:47:24.636Z,472.20
2019-02-08T22:50:28.586Z,455.87
2019-02-08T22:53:32.334Z,473.43
2019-02-08T22:56:36.019Z,508.70
2019-02-08T22:59:39.709Z,461.43
2019-02-08T23:02:43.435Z,445.43
2019-02-08T23:05:47.113Z,490.90
2019-02-08T23:08:50.833Z,451.17
2019-02-08T23:11:54.496Z,435.27
2019-02-08T23:14:58.225Z,358.73
2019-02-08T23:18:01.911Z,319.57
2019-02-08T23:21:05.616Z,336.50
2019-02-08T23:24:09.312Z,384.83
2019-02-08T23:27:13.425Z,360.73
2019-02-08T23:30:20.589Z,357.33
2019-02-08T23:33:24.239Z,328.97
2019-02-08T23:36:27.965Z,310.60
2019-02-08T23:39:31.669Z,258.47
2019-02-08T23:42:35.324Z,283.47
2019-02-08T23:45:39.031Z,276.83
2019-02-08T23:48:42.680Z,351.30
2019-02-08T23:51:46.350Z,333.53
2019-02-08T23:54:50.075Z,317.17
2019-02-08T23:57:53.755Z,292.67
